sensor_id;sensor_type;location;lat;lon;timestamp;pressure;altitude;pressure_sealevel;temperature;humidity
70343;BME280;57767;42.068;24.752;2023-01-29T00:00:06;98993.72;;;3.72;59.80
70343;BME280;57767;42.068;24.752;2023-01-29T00:01:10;98992.41;;;3.76;59.79
70343;BME280;57767;42.068;24.752;2023-01-29T00:02:12;98987.03;;;3.77;60.11
70343;BME280;57767;42.068;24.752;2023-01-29T00:03:14;98984.91;;;3.73;60.34
70343;BME280;57767;42.068;24.752;2023-01-29T00:04:17;98985.56;;;3.75;59.62
70343;BME280;57767;42.068;24.752;2023-01-29T00:05:19;98986.06;;;3.78;60.15
70343;BME280;57767;42.068;24.752;2023-01-29T00:06:28;98984.09;;;3.72;59.70
70343;BME280;57767;42.068;24.752;2023-01-29T00:07:31;98995.19;;;3.82;59.90
70343;BME280;57767;42.068;24.752;2023-01-29T00:08:36;98986.69;;;3.72;59.64
70343;BME280;57767;42.068;24.752;2023-01-29T00:09:38;98997.47;;;3.77;59.99
70343;BME280;57767;42.068;24.752;2023-01-29T00:10:40;98992.41;;;3.76;59.92
70343;BME280;57767;42.068;24.752;2023-01-29T00:11:42;98979.50;;;3.66;60.42
70343;BME280;57767;42.068;24.752;2023-01-29T00:12:44;98991.28;;;3.78;60.30
70343;BME280;57767;42.068;24.752;2023-01-29T00:13:45;98999.75;;;3.80;59.00
70343;BME280;57767;42.068;24.752;2023-01-29T00:14:48;98996.50;;;3.78;59.68
70343;BME280;57767;42.068;24.752;2023-01-29T00:15:54;99002.06;;;3.83;59.44
70343;BME280;57767;42.068;24.752;2023-01-29T00:16:57;99005.97;;;3.79;59.44
70343;BME280;57767;42.068;24.752;2023-01-29T00:17:58;98992.25;;;3.77;59.92
70343;BME280;57767;42.068;24.752;2023-01-29T00:19:01;99009.22;;;3.73;59.92
70343;BME280;57767;42.068;24.752;2023-01-29T00:20:03;99008.25;;;3.74;59.94
70343;BME280;57767;42.068;24.752;2023-01-29T00:21:16;99006.59;;;3.73;59.81
70343;BME280;57767;42.068;24.752;2023-01-29T00:22:18;98991.59;;;3.67;59.20
70343;BME280;57767;42.068;24.752;2023-01-29T00:23:20;99001.69;;;3.70;59.50
70343;BME280;57767;42.068;24.752;2023-01-29T00:24:22;99005.31;;;3.77;59.97
70343;BME280;57767;42.068;24.752;2023-01-29T00:25:24;99014.13;;;3.76;59.56
70343;BME280;57767;42.068;24.752;2023-01-29T00:26:26;99009.22;;;3.73;59.96
70343;BME280;57767;42.068;24.752;2023-01-29T00:27:28;99010.84;;;3.74;59.39
70343;BME280;57767;42.068;24.752;2023-01-29T00:28:30;99009.72;;;3.77;59.23
70343;BME280;57767;42.068;24.752;2023-01-29T00:29:32;99010.38;;;3.79;59.98
70343;BME280;57767;42.068;24.752;2023-01-29T00:30:35;99008.09;;;3.76;59.11
70343;BME280;57767;42.068;24.752;2023-01-29T00:31:37;98993.19;;;3.68;59.70
70343;BME280;57767;42.068;24.752;2023-01-29T00:32:39;98995.66;;;3.70;59.85
70343;BME280;57767;42.068;24.752;2023-01-29T00:33:41;99009.88;;;3.75;60.16
70343;BME280;57767;42.068;24.752;2023-01-29T00:34:43;99009.56;;;3.78;60.10
70343;BME280;57767;42.068;24.752;2023-01-29T00:35:45;99011.38;;;3.78;60.01
70343;BME280;57767;42.068;24.752;2023-01-29T00:36:46;99006.28;;;3.76;60.44
70343;BME280;57767;42.068;24.752;2023-01-29T00:37:48;99000.06;;;3.69;59.90
70343;BME280;57767;42.068;24.752;2023-01-29T00:39:00;99011.19;;;3.79;60.42
70343;BME280;57767;42.068;24.752;2023-01-29T00:40:04;99014.94;;;3.77;60.45
70343;BME280;57767;42.068;24.752;2023-01-29T00:42:29;99009.22;;;3.73;60.49
70343;BME280;57767;42.068;24.752;2023-01-29T00:43:50;99007.44;;;3.74;59.95
70343;BME280;57767;42.068;24.752;2023-01-29T00:45:11;99007.28;;;3.75;59.88
70343;BME280;57767;42.068;24.752;2023-01-29T00:46:13;99013.81;;;3.79;60.28
70343;BME280;57767;42.068;24.752;2023-01-29T00:47:14;98987.00;;;3.61;60.35
70343;BME280;57767;42.068;24.752;2023-01-29T00:48:32;99012.81;;;3.80;60.81
70343;BME280;57767;42.068;24.752;2023-01-29T00:49:34;99006.28;;;3.76;60.23
70343;BME280;57767;42.068;24.752;2023-01-29T00:50:36;99013.31;;;3.84;60.35
70343;BME280;57767;42.068;24.752;2023-01-29T00:51:38;99014.47;;;3.89;59.97
70343;BME280;57767;42.068;24.752;2023-01-29T00:52:40;99015.44;;;3.96;59.99
70343;BME280;57767;42.068;24.752;2023-01-29T00:53:42;99021.50;;;3.89;60.17
70343;BME280;57767;42.068;24.752;2023-01-29T00:54:43;99021.66;;;3.87;59.99
70343;BME280;57767;42.068;24.752;2023-01-29T00:55:45;99019.03;;;3.87;59.89
70343;BME280;57767;42.068;24.752;2023-01-29T00:56:47;99009.88;;;3.75;60.62
70343;BME280;57767;42.068;24.752;2023-01-29T00:57:48;99014.28;;;3.83;60.72
70343;BME280;57767;42.068;24.752;2023-01-29T00:58:50;99016.25;;;3.81;60.69
70343;BME280;57767;42.068;24.752;2023-01-29T00:59:52;99016.59;;;3.86;60.38
70343;BME280;57767;42.068;24.752;2023-01-29T01:00:54;99018.06;;;3.88;60.78
70343;BME280;57767;42.068;24.752;2023-01-29T01:01:56;98997.97;;;3.73;60.22
70343;BME280;57767;42.068;24.752;2023-01-29T01:03:16;99016.44;;;3.87;60.41
70343;BME280;57767;42.068;24.752;2023-01-29T01:04:18;99004.00;;;3.81;60.35
70343;BME280;57767;42.068;24.752;2023-01-29T01:05:20;99017.06;;;3.81;60.86
70343;BME280;57767;42.068;24.752;2023-01-29T01:06:22;99009.06;;;3.75;60.95
70343;BME280;57767;42.068;24.752;2023-01-29T01:07:23;99015.09;;;3.75;60.41
70343;BME280;57767;42.068;24.752;2023-01-29T01:08:25;99009.88;;;3.75;60.28
70343;BME280;57767;42.068;24.752;2023-01-29T01:09:45;99016.22;;;3.73;61.00
70343;BME280;57767;42.068;24.752;2023-01-29T01:11:06;99013.78;;;3.71;61.49
70343;BME280;57767;42.068;24.752;2023-01-29T01:12:08;99012.00;;;3.72;61.70
70343;BME280;57767;42.068;24.752;2023-01-29T01:13:09;99019.00;;;3.71;61.08
70343;BME280;57767;42.068;24.752;2023-01-29T01:14:11;99009.69;;;3.69;61.75
70343;BME280;57767;42.068;24.752;2023-01-29T01:15:13;99014.44;;;3.65;61.61
70343;BME280;57767;42.068;24.752;2023-01-29T01:16:16;99010.66;;;3.59;61.91
70343;BME280;57767;42.068;24.752;2023-01-29T01:17:19;99015.25;;;3.66;61.39
70343;BME280;57767;42.068;24.752;2023-01-29T01:18:21;99014.75;;;3.62;61.56
70343;BME280;57767;42.068;24.752;2023-01-29T01:19:23;99007.38;;;3.57;62.21
70343;BME280;57767;42.068;24.752;2023-01-29T01:20:27;99009.84;;;3.59;62.02
70343;BME280;57767;42.068;24.752;2023-01-29T01:21:28;99012.13;;;3.54;62.31
70343;BME280;57767;42.068;24.752;2023-01-29T01:22:30;99016.03;;;3.50;62.32
70343;BME280;57767;42.068;24.752;2023-01-29T01:23:32;99024.97;;;3.47;62.34
70343;BME280;57767;42.068;24.752;2023-01-29T01:24:34;99023.69;;;3.51;62.48
70343;BME280;57767;42.068;24.752;2023-01-29T01:25:36;99001.94;;;3.43;62.47
70343;BME280;57767;42.068;24.752;2023-01-29T01:26:38;99021.56;;;3.47;62.80
70343;BME280;57767;42.068;24.752;2023-01-29T01:27:40;99026.78;;;3.47;63.28
70343;BME280;57767;42.068;24.752;2023-01-29T01:28:42;99026.09;;;3.37;63.80
70343;BME280;57767;42.068;24.752;2023-01-29T01:29:45;99021.03;;;3.35;62.85
70343;BME280;57767;42.068;24.752;2023-01-29T01:30:47;99023.47;;;3.37;63.06
70343;BME280;57767;42.068;24.752;2023-01-29T01:31:49;99031.97;;;3.39;64.02
70343;BME280;57767;42.068;24.752;2023-01-29T01:32:51;99030.13;;;3.31;63.26
70343;BME280;57767;42.068;24.752;2023-01-29T01:33:53;99028.69;;;3.37;63.98
70343;BME280;57767;42.068;24.752;2023-01-29T01:34:56;99027.09;;;3.44;63.37
70343;BME280;57767;42.068;24.752;2023-01-29T01:36:00;99029.38;;;3.47;63.42
70343;BME280;57767;42.068;24.752;2023-01-29T01:37:02;99016.31;;;3.39;63.54
70343;BME280;57767;42.068;24.752;2023-01-29T01:38:04;99020.34;;;3.33;64.26
70343;BME280;57767;42.068;24.752;2023-01-29T01:39:05;99023.94;;;3.32;63.60
70343;BME280;57767;42.068;24.752;2023-01-29T01:40:13;99014.31;;;3.33;64.24
70343;BME280;57767;42.068;24.752;2023-01-29T01:41:20;99024.47;;;3.36;63.98
70343;BME280;57767;42.068;24.752;2023-01-29T01:42:27;99018.56;;;3.34;64.19
70343;BME280;57767;42.068;24.752;2023-01-29T01:43:46;99027.53;;;3.31;64.48
70343;BME280;57767;42.068;24.752;2023-01-29T01:45:53;99024.09;;;3.31;64.06
70343;BME280;57767;42.068;24.752;2023-01-29T01:46:55;99019.38;;;3.34;64.69
70343;BME280;57767;42.068;24.752;2023-01-29T01:48:05;99003.03;;;3.16;65.13
70343;BME280;57767;42.068;24.752;2023-01-29T01:49:13;99018.06;;;3.30;65.12
70343;BME280;57767;42.068;24.752;2023-01-29T01:50:27;99020.19;;;3.27;65.00
70343;BME280;57767;42.068;24.752;2023-01-29T01:51:32;99017.56;;;3.27;64.85
70343;BME280;57767;42.068;24.752;2023-01-29T01:52:36;99021.66;;;3.29;64.80
70343;BME280;57767;42.068;24.752;2023-01-29T01:53:49;99012.81;;;3.22;65.07
70343;BME280;57767;42.068;24.752;2023-01-29T01:54:52;99015.72;;;3.19;65.55
70343;BME280;57767;42.068;24.752;2023-01-29T01:56:00;99017.22;;;3.21;65.71
70343;BME280;57767;42.068;24.752;2023-01-29T01:57:07;99016.56;;;3.19;65.48
70343;BME280;57767;42.068;24.752;2023-01-29T01:58:26;99019.16;;;3.19;65.17
70343;BME280;57767;42.068;24.752;2023-01-29T01:59:28;99013.47;;;3.16;65.51
70343;BME280;57767;42.068;24.752;2023-01-29T02:00:31;99024.72;;;3.16;65.86
70343;BME280;57767;42.068;24.752;2023-01-29T02:01:33;99012.13;;;3.12;65.36
70343;BME280;57767;42.068;24.752;2023-01-29T02:02:37;99015.25;;;3.15;65.08
70343;BME280;57767;42.068;24.752;2023-01-29T02:04:24;99021.09;;;3.09;65.41
70343;BME280;57767;42.068;24.752;2023-01-29T02:05:45;99023.38;;;3.12;65.72
70343;BME280;57767;42.068;24.752;2023-01-29T02:07:09;99019.59;;;3.07;65.51
70343;BME280;57767;42.068;24.752;2023-01-29T02:08:57;99029.75;;;3.18;65.16
70343;BME280;57767;42.068;24.752;2023-01-29T02:10:20;99018.84;;;3.14;65.90
70343;BME280;57767;42.068;24.752;2023-01-29T02:11:22;99028.78;;;3.19;65.34
70343;BME280;57767;42.068;24.752;2023-01-29T02:12:25;99025.03;;;3.13;66.50
70343;BME280;57767;42.068;24.752;2023-01-29T02:13:29;99014.91;;;3.10;65.62
70343;BME280;57767;42.068;24.752;2023-01-29T02:14:31;99022.72;;;3.10;66.19
70343;BME280;57767;42.068;24.752;2023-01-29T02:15:34;99018.63;;;3.08;65.93
70343;BME280;57767;42.068;24.752;2023-01-29T02:16:36;99023.38;;;3.12;66.35
70343;BME280;57767;42.068;24.752;2023-01-29T02:17:38;99024.06;;;3.14;65.78
70343;BME280;57767;42.068;24.752;2023-01-29T02:18:40;99017.66;;;3.09;65.77
70343;BME280;57767;42.068;24.752;2023-01-29T02:23:44;99032.19;;;3.11;67.12
70343;BME280;57767;42.068;24.752;2023-01-29T02:25:02;99035.63;;;3.12;66.71
70343;BME280;57767;42.068;24.752;2023-01-29T02:29:09;99043.94;;;3.15;67.68
70343;BME280;57767;42.068;24.752;2023-01-29T02:31:57;99040.38;;;3.16;68.11
70343;BME280;57767;42.068;24.752;2023-01-29T02:38:22;99042.97;;;3.16;67.37
70343;BME280;57767;42.068;24.752;2023-01-29T02:43:29;99048.00;;;3.18;67.56
70343;BME280;57767;42.068;24.752;2023-01-29T02:44:40;99043.13;;;3.15;67.79
70343;BME280;57767;42.068;24.752;2023-01-29T02:45:57;99035.16;;;3.16;67.50
70343;BME280;57767;42.068;24.752;2023-01-29T02:47:10;99044.94;;;3.14;67.24
70343;BME280;57767;42.068;24.752;2023-01-29T02:48:20;99046.75;;;3.22;67.77
70343;BME280;57767;42.068;24.752;2023-01-29T02:50:12;99050.47;;;3.19;67.79
70343;BME280;57767;42.068;24.752;2023-01-29T02:51:09;99039.72;;;3.14;67.58
70343;BME280;57767;42.068;24.752;2023-01-29T02:52:18;99056.34;;;3.21;68.20
70343;BME280;57767;42.068;24.752;2023-01-29T02:53:28;99043.06;;;3.07;67.64
70343;BME280;57767;42.068;24.752;2023-01-29T02:54:40;99055.22;;;3.16;68.43
70343;BME280;57767;42.068;24.752;2023-01-29T02:55:52;99058.00;;;3.22;68.20
70343;BME280;57767;42.068;24.752;2023-01-29T02:57:04;99056.34;;;3.21;68.07
70343;BME280;57767;42.068;24.752;2023-01-29T02:58:16;99053.41;;;3.16;68.44
70343;BME280;57767;42.068;24.752;2023-01-29T02:59:25;99053.44;;;3.24;68.28
70343;BME280;57767;42.068;24.752;2023-01-29T03:00:35;99055.53;;;3.21;68.69
70343;BME280;57767;42.068;24.752;2023-01-29T03:01:45;99068.94;;;3.26;68.41
70343;BME280;57767;42.068;24.752;2023-01-29T03:03:02;99055.59;;;3.29;67.71
70343;BME280;57767;42.068;24.752;2023-01-29T03:04:10;99054.78;;;3.29;67.89
70343;BME280;57767;42.068;24.752;2023-01-29T03:05:24;99054.56;;;3.22;68.67
70343;BME280;57767;42.068;24.752;2023-01-29T03:06:34;99069.63;;;3.28;68.79
70343;BME280;57767;42.068;24.752;2023-01-29T03:07:42;99062.41;;;3.30;68.43
70343;BME280;57767;42.068;24.752;2023-01-29T03:08:55;99067.16;;;3.27;68.90
70343;BME280;57767;42.068;24.752;2023-01-29T03:10:00;99059.28;;;3.18;69.21
70343;BME280;57767;42.068;24.752;2023-01-29T03:11:05;99065.00;;;3.22;68.87
70343;BME280;57767;42.068;24.752;2023-01-29T03:12:20;99067.16;;;3.27;69.75
70343;BME280;57767;42.068;24.752;2023-01-29T03:14:50;99068.41;;;3.14;69.70
70343;BME280;57767;42.068;24.752;2023-01-29T03:16:25;99070.22;;;3.22;69.98
70343;BME280;57767;42.068;24.752;2023-01-29T03:17:36;99068.25;;;3.16;70.07
70343;BME280;57767;42.068;24.752;2023-01-29T03:18:42;99075.13;;;3.25;69.74
70343;BME280;57767;42.068;24.752;2023-01-29T03:19:47;99075.59;;;3.20;70.75
70343;BME280;57767;42.068;24.752;2023-01-29T03:20:55;99070.03;;;3.15;71.12
70343;BME280;57767;42.068;24.752;2023-01-29T03:22:03;99070.88;;;3.16;70.61
70343;BME280;57767;42.068;24.752;2023-01-29T03:23:10;99074.63;;;3.21;71.10
70343;BME280;57767;42.068;24.752;2023-01-29T03:24:20;99073.28;;;3.17;70.52
70343;BME280;57767;42.068;24.752;2023-01-29T03:25:42;99076.38;;;3.13;70.86
70343;BME280;57767;42.068;24.752;2023-01-29T03:27:07;99075.88;;;3.09;71.03
70343;BME280;57767;42.068;24.752;2023-01-29T03:28:29;99088.75;;;3.11;70.76
70343;BME280;57767;42.068;24.752;2023-01-29T03:29:51;99079.75;;;3.05;71.17
70343;BME280;57767;42.068;24.752;2023-01-29T03:31:13;99092.44;;;3.00;71.80
70343;BME280;57767;42.068;24.752;2023-01-29T03:32:36;99085.59;;;2.99;72.30
70343;BME280;57767;42.068;24.752;2023-01-29T03:33:47;99092.97;;;3.04;72.11
70343;BME280;57767;42.068;24.752;2023-01-29T03:34:56;99087.56;;;3.05;71.98
70343;BME280;57767;42.068;24.752;2023-01-29T03:36:04;99091.66;;;3.08;71.99
70343;BME280;57767;42.068;24.752;2023-01-29T03:37:12;99082.84;;;3.01;72.34
70343;BME280;57767;42.068;24.752;2023-01-29T03:38:15;99081.50;;;2.97;72.13
70343;BME280;57767;42.068;24.752;2023-01-29T03:39:18;99078.44;;;3.01;72.11
70343;BME280;57767;42.068;24.752;2023-01-29T03:40:20;99083.97;;;2.98;72.54
70343;BME280;57767;42.068;24.752;2023-01-29T03:41:29;99085.56;;;2.91;72.79
70343;BME280;57767;42.068;24.752;2023-01-29T03:43:24;99100.94;;;3.02;72.66
70343;BME280;57767;42.068;24.752;2023-01-29T03:47:16;99107.59;;;2.97;73.55
70343;BME280;57767;42.068;24.752;2023-01-29T03:48:37;99100.88;;;2.94;72.98
70343;BME280;57767;42.068;24.752;2023-01-29T03:50:01;99106.63;;;2.98;73.71
70343;BME280;57767;42.068;24.752;2023-01-29T03:52:22;99095.34;;;2.97;72.30
70343;BME280;57767;42.068;24.752;2023-01-29T03:57:02;99101.66;;;2.86;73.50
70343;BME280;57767;42.068;24.752;2023-01-29T03:59:30;99119.09;;;2.86;74.60
70343;BME280;57767;42.068;24.752;2023-01-29T04:00:38;99092.16;;;2.77;74.66
70343;BME280;57767;42.068;24.752;2023-01-29T04:01:52;99111.56;;;2.83;74.40
70343;BME280;57767;42.068;24.752;2023-01-29T04:04:11;99114.03;;;2.84;75.59
70343;BME280;57767;42.068;24.752;2023-01-29T04:05:28;99118.63;;;2.91;75.46
70343;BME280;57767;42.068;24.752;2023-01-29T04:06:35;99102.78;;;2.84;74.91
70343;BME280;57767;42.068;24.752;2023-01-29T04:07:39;99122.22;;;2.90;75.25
70343;BME280;57767;42.068;24.752;2023-01-29T04:10:03;99121.53;;;2.87;75.69
70343;BME280;57767;42.068;24.752;2023-01-29T04:11:10;99119.75;;;2.88;76.10
70343;BME280;57767;42.068;24.752;2023-01-29T04:12:19;99116.19;;;2.89;75.84
70343;BME280;57767;42.068;24.752;2023-01-29T04:13:23;99114.72;;;2.95;75.54
70343;BME280;57767;42.068;24.752;2023-01-29T04:14:26;99114.88;;;2.93;75.53
70343;BME280;57767;42.068;24.752;2023-01-29T04:15:30;99131.56;;;3.00;75.83
70343;BME280;57767;42.068;24.752;2023-01-29T04:16:37;99120.47;;;2.98;76.07
70343;BME280;57767;42.068;24.752;2023-01-29T04:17:49;99126.69;;;3.05;75.96
70343;BME280;57767;42.068;24.752;2023-01-29T04:18:52;99116.59;;;3.02;75.36
70343;BME280;57767;42.068;24.752;2023-01-29T04:19:55;99116.91;;;2.99;76.29
70343;BME280;57767;42.068;24.752;2023-01-29T04:20:56;99128.66;;;3.03;75.69
70343;BME280;57767;42.068;24.752;2023-01-29T04:22:08;99135.16;;;2.99;75.62
70343;BME280;57767;42.068;24.752;2023-01-29T04:23:22;99131.91;;;3.05;75.90
70343;BME280;57767;42.068;24.752;2023-01-29T04:24:24;99132.25;;;3.02;76.67
70343;BME280;57767;42.068;24.752;2023-01-29T04:25:29;99140.56;;;3.06;76.42
70343;BME280;57767;42.068;24.752;2023-01-29T04:28:04;99131.72;;;2.99;75.81
70343;BME280;57767;42.068;24.752;2023-01-29T04:29:28;99135.50;;;3.04;76.23
70343;BME280;57767;42.068;24.752;2023-01-29T04:36:39;99135.00;;;3.01;75.25
70343;BME280;57767;42.068;24.752;2023-01-29T04:37:54;99131.88;;;2.97;75.23
70343;BME280;57767;42.068;24.752;2023-01-29T04:40:33;99138.06;;;2.96;74.23
70343;BME280;57767;42.068;24.752;2023-01-29T04:42:52;99142.47;;;2.96;74.25
70343;BME280;57767;42.068;24.752;2023-01-29T04:44:15;99142.13;;;2.91;75.11
70343;BME280;57767;42.068;24.752;2023-01-29T04:46:48;99143.38;;;2.86;75.01
70343;BME280;57767;42.068;24.752;2023-01-29T04:49:16;99144.19;;;2.87;74.75
70343;BME280;57767;42.068;24.752;2023-01-29T04:50:25;99137.88;;;2.72;75.18
70343;BME280;57767;42.068;24.752;2023-01-29T04:51:52;99144.44;;;2.76;75.42
70343;BME280;57767;42.068;24.752;2023-01-29T04:55:47;99143.56;;;2.93;74.40
70343;BME280;57767;42.068;24.752;2023-01-29T04:57:00;99145.22;;;2.94;74.38
70343;BME280;57767;42.068;24.752;2023-01-29T04:58:13;99143.94;;;2.98;74.27
70343;BME280;57767;42.068;24.752;2023-01-29T04:59:22;99149.31;;;2.97;74.31
70343;BME280;57767;42.068;24.752;2023-01-29T05:00:30;99148.66;;;2.95;74.18
70343;BME280;57767;42.068;24.752;2023-01-29T05:01:36;99141.94;;;2.92;75.24
70343;BME280;57767;42.068;24.752;2023-01-29T05:02:40;99148.19;;;2.99;74.91
70343;BME280;57767;42.068;24.752;2023-01-29T05:03:48;99146.84;;;2.95;74.74
70343;BME280;57767;42.068;24.752;2023-01-29T05:04:52;99155.06;;;3.00;74.04
70343;BME280;57767;42.068;24.752;2023-01-29T05:05:56;99157.19;;;3.05;73.76
70343;BME280;57767;42.068;24.752;2023-01-29T05:07:10;99155.56;;;3.04;73.81
70343;BME280;57767;42.068;24.752;2023-01-29T05:08:16;99152.44;;;3.00;74.33
70343;BME280;57767;42.068;24.752;2023-01-29T05:09:20;99157.66;;;3.00;74.52
70343;BME280;57767;42.068;24.752;2023-01-29T05:10:23;99153.72;;;2.96;74.75
70343;BME280;57767;42.068;24.752;2023-01-29T05:11:25;99161.59;;;3.04;74.93
70343;BME280;57767;42.068;24.752;2023-01-29T05:12:28;99165.69;;;3.07;74.05
70343;BME280;57767;42.068;24.752;2023-01-29T05:13:33;99158.53;;;3.09;74.21
70343;BME280;57767;42.068;24.752;2023-01-29T05:14:42;99161.97;;;3.09;74.26
70343;BME280;57767;42.068;24.752;2023-01-29T05:15:48;99161.28;;;3.07;74.91
70343;BME280;57767;42.068;24.752;2023-01-29T05:16:56;99157.81;;;2.99;74.61
70343;BME280;57767;42.068;24.752;2023-01-29T05:17:59;99164.38;;;3.03;74.51
70343;BME280;57767;42.068;24.752;2023-01-29T05:19:03;99164.28;;;2.95;75.26
70343;BME280;57767;42.068;24.752;2023-01-29T05:20:05;99174.97;;;3.01;74.91
70343;BME280;57767;42.068;24.752;2023-01-29T05:21:08;99168.09;;;3.00;74.93
70343;BME280;57767;42.068;24.752;2023-01-29T05:22:12;99175.28;;;3.06;74.71
70343;BME280;57767;42.068;24.752;2023-01-29T05:23:21;99174.19;;;3.09;74.14
70343;BME280;57767;42.068;24.752;2023-01-29T05:24:24;99165.63;;;2.99;73.82
70343;BME280;57767;42.068;24.752;2023-01-29T05:25:30;99174.63;;;3.04;73.57
70343;BME280;57767;42.068;24.752;2023-01-29T05:26:32;99176.28;;;3.05;73.96
70343;BME280;57767;42.068;24.752;2023-01-29T05:27:52;99165.50;;;3.00;73.33
70343;BME280;57767;42.068;24.752;2023-01-29T05:29:13;99180.31;;;3.00;73.26
70343;BME280;57767;42.068;24.752;2023-01-29T05:30:15;99174.00;;;3.02;73.44
70343;BME280;57767;42.068;24.752;2023-01-29T05:31:18;99173.16;;;3.02;73.55
70343;BME280;57767;42.068;24.752;2023-01-29T05:32:19;99171.88;;;3.06;73.32
70343;BME280;57767;42.068;24.752;2023-01-29T05:33:27;99176.94;;;3.07;72.95
70343;BME280;57767;42.068;24.752;2023-01-29T05:34:29;99162.50;;;2.95;73.54
70343;BME280;57767;42.068;24.752;2023-01-29T05:35:31;99177.41;;;3.03;73.18
70343;BME280;57767;42.068;24.752;2023-01-29T05:36:32;99171.72;;;3.07;72.70
70343;BME280;57767;42.068;24.752;2023-01-29T05:37:34;99180.59;;;3.14;73.13
70343;BME280;57767;42.068;24.752;2023-01-29T05:38:36;99174.34;;;3.07;72.70
70343;BME280;57767;42.068;24.752;2023-01-29T05:39:38;99182.25;;;3.15;71.95
70343;BME280;57767;42.068;24.752;2023-01-29T05:40:39;99192.00;;;3.13;72.36
70343;BME280;57767;42.068;24.752;2023-01-29T05:41:42;99178.38;;;3.02;72.24
70343;BME280;57767;42.068;24.752;2023-01-29T05:42:44;99188.66;;;3.03;72.79
70343;BME280;57767;42.068;24.752;2023-01-29T05:43:45;99183.75;;;3.00;72.54
70343;BME280;57767;42.068;24.752;2023-01-29T05:44:47;99187.03;;;3.02;72.08
70343;BME280;57767;42.068;24.752;2023-01-29T05:45:57;99185.25;;;3.03;71.64
70343;BME280;57767;42.068;24.752;2023-01-29T05:46:59;99189.50;;;3.04;72.39
70343;BME280;57767;42.068;24.752;2023-01-29T05:48:03;99183.28;;;3.05;72.30
70343;BME280;57767;42.068;24.752;2023-01-29T05:49:05;99183.66;;;3.10;72.10
70343;BME280;57767;42.068;24.752;2023-01-29T05:50:08;99185.97;;;3.13;71.39
70343;BME280;57767;42.068;24.752;2023-01-29T05:51:09;99181.03;;;3.10;71.88
70343;BME280;57767;42.068;24.752;2023-01-29T05:52:11;99185.00;;;3.14;72.24
70343;BME280;57767;42.068;24.752;2023-01-29T05:53:13;99184.03;;;3.15;71.55
70343;BME280;57767;42.068;24.752;2023-01-29T05:54:15;99186.09;;;3.11;71.88
70343;BME280;57767;42.068;24.752;2023-01-29T05:55:17;99184.47;;;3.10;72.43
70343;BME280;57767;42.068;24.752;2023-01-29T05:56:18;99188.91;;;3.18;72.19
70343;BME280;57767;42.068;24.752;2023-01-29T05:57:20;99192.66;;;3.15;71.26
70343;BME280;57767;42.068;24.752;2023-01-29T05:58:22;99180.91;;;3.11;71.19
70343;BME280;57767;42.068;24.752;2023-01-29T05:59:24;99155.66;;;2.94;71.26
70343;BME280;57767;42.068;24.752;2023-01-29T06:00:26;99201.25;;;3.08;71.29
70343;BME280;57767;42.068;24.752;2023-01-29T06:01:28;99201.38;;;3.06;71.80
70343;BME280;57767;42.068;24.752;2023-01-29T06:02:30;99197.75;;;2.99;71.68
70343;BME280;57767;42.068;24.752;2023-01-29T06:03:32;99199.84;;;2.96;72.02
70343;BME280;57767;42.068;24.752;2023-01-29T06:04:34;99203.78;;;3.00;72.39
70343;BME280;57767;42.068;24.752;2023-01-29T06:05:38;99200.38;;;2.99;72.47
70343;BME280;57767;42.068;24.752;2023-01-29T06:06:40;99209.16;;;2.98;72.04
70343;BME280;57767;42.068;24.752;2023-01-29T06:07:42;99209.84;;;3.00;71.66
70343;BME280;57767;42.068;24.752;2023-01-29T06:08:46;99205.16;;;3.04;71.85
70343;BME280;57767;42.068;24.752;2023-01-29T06:09:48;99202.88;;;3.09;72.41
70343;BME280;57767;42.068;24.752;2023-01-29T06:10:49;99204.91;;;3.15;71.58
70343;BME280;57767;42.068;24.752;2023-01-29T06:11:51;99212.72;;;3.15;71.60
70343;BME280;57767;42.068;24.752;2023-01-29T06:12:53;99212.34;;;3.10;71.12
70343;BME280;57767;42.068;24.752;2023-01-29T06:13:55;99208.88;;;3.01;71.46
70343;BME280;57767;42.068;24.752;2023-01-29T06:14:56;99215.72;;;3.02;71.70
70343;BME280;57767;42.068;24.752;2023-01-29T06:15:58;99217.66;;;3.00;71.71
70343;BME280;57767;42.068;24.752;2023-01-29T06:17:00;99215.06;;;3.00;71.71
70343;BME280;57767;42.068;24.752;2023-01-29T06:18:02;99214.91;;;3.02;72.43
70343;BME280;57767;42.068;24.752;2023-01-29T06:19:04;99211.16;;;3.04;71.40
70343;BME280;57767;42.068;24.752;2023-01-29T06:20:06;99203.78;;;3.00;72.53
70343;BME280;57767;42.068;24.752;2023-01-29T06:21:11;99222.19;;;2.98;72.32
70343;BME280;57767;42.068;24.752;2023-01-29T06:22:13;99195.31;;;2.80;71.85
70343;BME280;57767;42.068;24.752;2023-01-29T06:23:14;99223.69;;;3.01;71.94
70343;BME280;57767;42.068;24.752;2023-01-29T06:24:16;99227.03;;;2.93;72.04
70343;BME280;57767;42.068;24.752;2023-01-29T06:25:18;99226.53;;;2.90;72.21
70343;BME280;57767;42.068;24.752;2023-01-29T06:26:20;99234.38;;;2.90;72.22
70343;BME280;57767;42.068;24.752;2023-01-29T06:27:22;99223.69;;;2.83;72.43
70343;BME280;57767;42.068;24.752;2023-01-29T06:28:23;99223.13;;;2.89;72.99
70343;BME280;57767;42.068;24.752;2023-01-29T06:29:25;99224.91;;;2.88;72.63
70343;BME280;57767;42.068;24.752;2023-01-29T06:30:27;99215.88;;;2.83;72.71
70343;BME280;57767;42.068;24.752;2023-01-29T06:31:28;99218.47;;;2.83;73.25
70343;BME280;57767;42.068;24.752;2023-01-29T06:32:39;99237.78;;;2.90;72.97
70343;BME280;57767;42.068;24.752;2023-01-29T06:33:41;99229.19;;;2.80;74.21
70343;BME280;57767;42.068;24.752;2023-01-29T06:34:43;99239.72;;;2.88;74.09
70343;BME280;57767;42.068;24.752;2023-01-29T06:35:45;99242.41;;;2.96;74.04
70343;BME280;57767;42.068;24.752;2023-01-29T06:36:46;99244.56;;;3.01;73.88
70343;BME280;57767;42.068;24.752;2023-01-29T06:37:48;99232.78;;;2.97;74.08
70343;BME280;57767;42.068;24.752;2023-01-29T06:38:50;99229.72;;;3.01;73.89
70343;BME280;57767;42.068;24.752;2023-01-29T06:39:52;99239.06;;;3.04;73.85
70343;BME280;57767;42.068;24.752;2023-01-29T06:40:54;99245.59;;;3.08;73.88